Archival Weather

John F Kennedy Intl

New York, New York (KJFK)

Report from: Thursday, September 21, 2023 4:51 PM EDT
Current time: Sunday, February 25, 2024 5:51 PM EST

Current weather – Weather history – Daily summaries
Weather forecast

Temperature21.1°C (70.0°F)
Dew point11.1°C (52.0°F)
Winds 7 kts (3.6 m/s, 8.1 mph) South-Southwest (200°)
Visibility10 mi. (16.1 km)
Clouds Few clouds 5,000 ft. (1,524 m)
Ceiling: Broken clouds 25,000 ft. (7,620 m)
Altimeter30.26 in.Hg (1025 mB)
Relative humidity53 %
Density altitude518 ft. (158 m)
Sea-level pressure102.5 kPa (1025 mB, 30.26 in.Hg)
Remarks Automated weather observing station with precipitation discriminator
Pressure rising, then falling
Flight conditions Visual Meteorological Conditions
Raw dataKJFK 212051Z 20007KT 10SM FEW050 BKN250 21/11 A3026 RMK AO2 SLP246 T02110111 50001
An error has occurred. This application may no longer respond until reloaded. Reload 🗙